createdAt,value
2022-12-03T00:00:17.266Z,1017.39
2022-12-03T00:01:17.251Z,1017.33
2022-12-03T00:02:17.351Z,1017.37
2022-12-03T00:03:17.384Z,1017.35
2022-12-03T00:04:17.240Z,1017.31
2022-12-03T00:05:17.206Z,1017.30
2022-12-03T00:06:17.203Z,1017.32
2022-12-03T00:07:17.189Z,1017.36
2022-12-03T00:08:17.225Z,1017.36
2022-12-03T00:09:17.175Z,1017.38
2022-12-03T00:10:17.157Z,1017.35
2022-12-03T00:11:17.145Z,1017.34
2022-12-03T00:12:17.137Z,1017.33
2022-12-03T00:13:17.122Z,1017.34
2022-12-03T00:14:17.125Z,1017.34
2022-12-03T00:15:17.100Z,1017.31
2022-12-03T00:16:17.169Z,1017.32
2022-12-03T00:17:17.078Z,1017.37
2022-12-03T00:18:17.072Z,1017.35
2022-12-03T00:19:17.068Z,1017.31
2022-12-03T00:20:17.045Z,1017.33
2022-12-03T00:21:17.038Z,1017.34
2022-12-03T00:22:17.027Z,1017.38
2022-12-03T00:23:17.018Z,1017.37
2022-12-03T00:24:17.014Z,1017.31
2022-12-03T00:25:16.996Z,1017.33
2022-12-03T00:26:16.982Z,1017.31
2022-12-03T00:27:16.975Z,1017.29
2022-12-03T00:28:16.964Z,1017.27
2022-12-03T00:29:16.963Z,1017.28
2022-12-03T00:30:16.949Z,1017.30
2022-12-03T00:31:17.008Z,1017.28
2022-12-03T00:32:16.916Z,1017.30
2022-12-03T00:33:16.912Z,1017.28
2022-12-03T00:34:16.912Z,1017.31
2022-12-03T00:35:16.891Z,1017.33
2022-12-03T00:36:16.874Z,1017.29
2022-12-03T00:37:16.868Z,1017.28
2022-12-03T00:38:16.852Z,1017.28
2022-12-03T00:39:16.847Z,1017.29
2022-12-03T00:40:16.839Z,1017.33
2022-12-03T00:41:16.835Z,1017.23
2022-12-03T00:42:16.807Z,1017.27
2022-12-03T00:43:16.832Z,1017.25
2022-12-03T00:44:16.787Z,1017.26
2022-12-03T00:45:16.790Z,1017.25
2022-12-03T00:46:21.126Z,1017.25
2022-12-03T00:47:16.761Z,1017.28
2022-12-03T00:48:16.743Z,1017.26
2022-12-03T00:49:16.738Z,1017.26
2022-12-03T00:50:16.741Z,1017.18
2022-12-03T00:51:16.716Z,1017.21
2022-12-03T00:52:16.700Z,1017.17
2022-12-03T00:53:16.695Z,1017.23
2022-12-03T00:54:16.686Z,1017.24
2022-12-03T00:55:16.684Z,1017.25
2022-12-03T00:56:16.659Z,1017.29
2022-12-03T00:57:16.665Z,1017.22
2022-12-03T00:58:16.635Z,1017.24
2022-12-03T00:59:16.625Z,1017.24
2022-12-03T01:00:16.629Z,1017.28
2022-12-03T01:01:16.658Z,1017.25
2022-12-03T01:02:16.701Z,1017.23
2022-12-03T01:03:16.598Z,1017.28
2022-12-03T01:04:16.608Z,1017.26
2022-12-03T01:05:16.607Z,1017.29
2022-12-03T01:06:16.554Z,1017.24
2022-12-03T01:07:16.540Z,1017.24
2022-12-03T01:08:16.597Z,1017.26
2022-12-03T01:09:16.520Z,1017.24
2022-12-03T01:10:16.520Z,1017.24
2022-12-03T01:11:16.505Z,1017.25
2022-12-03T01:12:16.490Z,1017.24
2022-12-03T01:13:16.489Z,1017.25
2022-12-03T01:14:16.472Z,1017.28
2022-12-03T01:15:16.487Z,1017.29
2022-12-03T01:16:16.528Z,1017.27
2022-12-03T01:17:16.448Z,1017.27
2022-12-03T01:18:16.469Z,1017.31
2022-12-03T01:19:16.444Z,1017.31
2022-12-03T01:20:16.418Z,1017.25
2022-12-03T01:21:16.390Z,1017.25
2022-12-03T01:22:16.385Z,1017.31
2022-12-03T01:23:16.367Z,1017.28
2022-12-03T01:24:16.363Z,1017.26
2022-12-03T01:25:16.357Z,1017.31
2022-12-03T01:26:16.341Z,1017.28
2022-12-03T01:27:16.323Z,1017.35
2022-12-03T01:28:16.323Z,1017.29
2022-12-03T01:29:16.310Z,1017.36
2022-12-03T01:30:16.309Z,1017.32
2022-12-03T01:31:16.306Z,1017.31
2022-12-03T01:32:16.276Z,1017.31
2022-12-03T01:33:16.260Z,1017.32
2022-12-03T01:34:16.254Z,1017.34
2022-12-03T01:35:16.253Z,1017.34
2022-12-03T01:36:16.236Z,1017.31
2022-12-03T01:37:16.216Z,1017.28
2022-12-03T01:38:16.212Z,1017.28
2022-12-03T01:39:16.199Z,1017.29
2022-12-03T01:40:16.197Z,1017.29
2022-12-03T01:41:16.173Z,1017.28
2022-12-03T01:42:16.170Z,1017.24
2022-12-03T01:43:16.172Z,1017.21
2022-12-03T01:44:16.147Z,1017.21
2022-12-03T01:45:16.142Z,1017.18
2022-12-03T01:46:16.153Z,1017.26
2022-12-03T01:47:16.110Z,1017.24
2022-12-03T01:48:16.102Z,1017.16
2022-12-03T01:49:16.088Z,1017.26
2022-12-03T01:50:16.092Z,1017.24
2022-12-03T01:51:16.067Z,1017.23
2022-12-03T01:52:16.062Z,1017.29
2022-12-03T01:53:16.049Z,1017.28
2022-12-03T01:54:16.055Z,1017.29
2022-12-03T01:55:16.041Z,1017.27
2022-12-03T01:56:16.018Z,1017.28
2022-12-03T01:57:16.002Z,1017.25
2022-12-03T01:58:15.995Z,1017.30
2022-12-03T01:59:15.980Z,1017.30
2022-12-03T02:00:15.981Z,1017.30
2022-12-03T02:01:16.014Z,1017.28
2022-12-03T02:02:16.008Z,1017.33
2022-12-03T02:03:15.942Z,1017.36
2022-12-03T02:04:16.002Z,1017.38
2022-12-03T02:05:15.915Z,1017.36
2022-12-03T02:06:15.919Z,1017.33
2022-12-03T02:07:15.893Z,1017.37
2022-12-03T02:08:15.941Z,1017.33
2022-12-03T02:09:15.873Z,1017.35
2022-12-03T02:10:15.867Z,1017.34
2022-12-03T02:11:15.861Z,1017.36
2022-12-03T02:12:15.844Z,1017.39
2022-12-03T02:13:15.830Z,1017.32
2022-12-03T02:14:15.823Z,1017.31
2022-12-03T02:15:15.807Z,1017.35
2022-12-03T02:16:15.895Z,1017.36
2022-12-03T02:17:15.787Z,1017.34
2022-12-03T02:18:15.792Z,1017.29
2022-12-03T02:19:15.766Z,1017.33
2022-12-03T02:20:15.760Z,1017.32
2022-12-03T02:21:15.757Z,1017.29
2022-12-03T02:22:15.739Z,1017.30
2022-12-03T02:23:15.722Z,1017.33
2022-12-03T02:24:15.722Z,1017.31
2022-12-03T02:25:15.699Z,1017.34
2022-12-03T02:26:15.701Z,1017.33
2022-12-03T02:27:15.682Z,1017.39
2022-12-03T02:28:15.674Z,1017.34
2022-12-03T02:29:15.658Z,1017.33
2022-12-03T02:30:15.653Z,1017.32
2022-12-03T02:31:15.710Z,1017.30
2022-12-03T02:32:15.629Z,1017.28
2022-12-03T02:33:15.616Z,1017.28
2022-12-03T02:34:15.609Z,1017.30
2022-12-03T02:35:15.593Z,1017.28
2022-12-03T02:36:15.596Z,1017.27
2022-12-03T02:37:15.577Z,1017.22
2022-12-03T02:38:15.571Z,1017.24
2022-12-03T02:39:15.550Z,1017.19
2022-12-03T02:40:15.543Z,1017.21
2022-12-03T02:41:15.538Z,1017.22
2022-12-03T02:42:15.524Z,1017.24
2022-12-03T02:43:15.506Z,1017.21
2022-12-03T02:44:15.499Z,1017.18
2022-12-03T02:45:15.485Z,1017.23
2022-12-03T02:46:15.529Z,1017.20
2022-12-03T02:47:15.465Z,1017.27
2022-12-03T02:48:15.459Z,1017.23
2022-12-03T02:49:15.443Z,1017.17
2022-12-03T02:50:15.440Z,1017.16
2022-12-03T02:51:15.430Z,1017.16
2022-12-03T02:52:15.415Z,1017.18
2022-12-03T02:53:15.400Z,1017.17
2022-12-03T02:54:15.395Z,1017.15
2022-12-03T02:55:15.378Z,1017.16
2022-12-03T02:56:15.383Z,1017.12
2022-12-03T02:57:15.356Z,1017.15
2022-12-03T02:58:15.351Z,1017.16
2022-12-03T02:59:15.334Z,1017.21
2022-12-03T03:00:15.346Z,1017.15
2022-12-03T03:01:15.371Z,1017.17
2022-12-03T03:02:15.332Z,1017.19
2022-12-03T03:03:15.292Z,1017.16
2022-12-03T03:04:15.284Z,1017.18
2022-12-03T03:05:15.271Z,1017.19
2022-12-03T03:06:15.274Z,1017.19
2022-12-03T03:07:15.246Z,1017.23
2022-12-03T03:08:15.266Z,1017.16
2022-12-03T03:09:15.228Z,1017.16
2022-12-03T03:10:15.222Z,1017.16
2022-12-03T03:11:15.218Z,1017.19
2022-12-03T03:12:15.200Z,1017.21
2022-12-03T03:13:15.183Z,1017.20
2022-12-03T03:14:15.177Z,1017.21
2022-12-03T03:15:15.159Z,1017.25
2022-12-03T03:16:15.229Z,1017.17
2022-12-03T03:17:15.143Z,1017.15
2022-12-03T03:18:15.132Z,1017.16
2022-12-03T03:19:15.118Z,1017.12
2022-12-03T03:20:15.113Z,1017.10
2022-12-03T03:21:15.106Z,1017.16
2022-12-03T03:22:15.092Z,1017.05
2022-12-03T03:23:15.075Z,1017.08
2022-12-03T03:24:15.070Z,1017.10
2022-12-03T03:25:15.053Z,1017.09
2022-12-03T03:26:15.054Z,1017.11
2022-12-03T03:27:15.030Z,1017.01
2022-12-03T03:28:15.027Z,1017.06
2022-12-03T03:29:15.011Z,1017.11
2022-12-03T03:30:15.004Z,1017.12
2022-12-03T03:31:15.043Z,1017.13
2022-12-03T03:32:14.980Z,1017.13
2022-12-03T03:33:14.972Z,1017.06
2022-12-03T03:34:14.961Z,1017.06
2022-12-03T03:35:14.945Z,1017.07
2022-12-03T03:36:14.959Z,1017.12
2022-12-03T03:37:14.923Z,1017.14
2022-12-03T03:38:14.915Z,1017.13
2022-12-03T03:39:14.911Z,1017.11
2022-12-03T03:40:14.893Z,1017.08
2022-12-03T03:41:14.881Z,1017.08
2022-12-03T03:42:14.884Z,1017.10
2022-12-03T03:43:14.860Z,1017.07
2022-12-03T03:44:14.850Z,1017.07
2022-12-03T03:45:14.835Z,1017.06
2022-12-03T03:46:14.861Z,1017.05
2022-12-03T03:47:14.827Z,1017.04
2022-12-03T03:48:14.807Z,1017.07
2022-12-03T03:49:14.798Z,1017.03
2022-12-03T03:50:14.787Z,1016.95
2022-12-03T03:51:14.773Z,1016.99
2022-12-03T03:52:14.774Z,1017.01
2022-12-03T03:53:14.751Z,1016.98
2022-12-03T03:54:14.742Z,1016.91
2022-12-03T03:55:14.729Z,1016.94
2022-12-03T03:56:14.719Z,1016.92
2022-12-03T03:57:14.716Z,1016.90
2022-12-03T03:58:14.701Z,1016.91
2022-12-03T03:59:14.692Z,1016.88
2022-12-03T04:00:14.682Z,1016.88
2022-12-03T04:01:14.726Z,1016.89
2022-12-03T04:02:14.664Z,1016.90
2022-12-03T04:03:14.646Z,1016.88
2022-12-03T04:04:14.703Z,1016.87
2022-12-03T04:05:14.645Z,1016.87
2022-12-03T04:06:14.610Z,1016.85
2022-12-03T04:07:14.613Z,1016.90
2022-12-03T04:08:14.647Z,1016.83
2022-12-03T04:09:14.597Z,1016.82
2022-12-03T04:10:14.567Z,1016.78
2022-12-03T04:11:14.565Z,1016.81
2022-12-03T04:12:14.557Z,1016.78
2022-12-03T04:13:14.536Z,1016.74
2022-12-03T04:14:14.523Z,1016.75
2022-12-03T04:15:14.521Z,1016.72
2022-12-03T04:16:14.520Z,1016.75
2022-12-03T04:17:14.502Z,1016.75
2022-12-03T04:18:14.478Z,1016.76
2022-12-03T04:19:14.472Z,1016.73
2022-12-03T04:20:14.459Z,1016.78
2022-12-03T04:21:14.450Z,1016.76
2022-12-03T04:22:14.448Z,1016.74
2022-12-03T04:23:14.436Z,1016.74
2022-12-03T04:24:14.412Z,1016.70
2022-12-03T04:25:14.408Z,1016.75
2022-12-03T04:26:14.394Z,1016.72
2022-12-03T04:27:14.398Z,1016.71
2022-12-03T04:28:14.370Z,1016.71
2022-12-03T04:29:14.374Z,1016.71
2022-12-03T04:30:14.485Z,1016.67
2022-12-03T04:31:14.410Z,1016.70
2022-12-03T04:32:14.340Z,1016.67
2022-12-03T04:33:14.322Z,1016.78
2022-12-03T04:34:14.311Z,1016.71
2022-12-03T04:35:14.384Z,1016.71
2022-12-03T04:36:14.288Z,1016.68
2022-12-03T04:37:14.286Z,1016.62
2022-12-03T04:38:14.274Z,1016.65
2022-12-03T04:39:14.253Z,1016.61
2022-12-03T04:40:14.246Z,1016.63
2022-12-03T04:41:14.231Z,1016.67
2022-12-03T04:42:14.242Z,1016.63
2022-12-03T04:43:14.211Z,1016.65
2022-12-03T04:44:14.282Z,1016.68
2022-12-03T04:45:14.189Z,1016.71
2022-12-03T04:46:14.211Z,1016.76
2022-12-03T04:47:14.167Z,1016.77
2022-12-03T04:48:14.169Z,1016.71
2022-12-03T04:49:14.148Z,1016.71
2022-12-03T04:50:14.139Z,1016.69
2022-12-03T04:51:14.124Z,1016.75
2022-12-03T04:52:14.117Z,1016.76
2022-12-03T04:53:14.115Z,1016.78
2022-12-03T04:54:14.096Z,1016.75
2022-12-03T04:55:14.079Z,1016.72
2022-12-03T04:56:14.073Z,1016.77
2022-12-03T04:57:14.057Z,1016.78
2022-12-03T04:58:14.064Z,1016.76
2022-12-03T04:59:16.295Z,1016.86
2022-12-03T05:00:14.030Z,1016.82
2022-12-03T05:01:14.080Z,1016.76
2022-12-03T05:02:14.171Z,1016.78
2022-12-03T05:03:14.009Z,1016.79
2022-12-03T05:04:13.991Z,1016.89
2022-12-03T05:05:13.976Z,1016.85
2022-12-03T05:06:13.965Z,1016.79
2022-12-03T05:07:13.955Z,1016.84
2022-12-03T05:08:14.009Z,1016.81
2022-12-03T05:09:13.929Z,1016.86
2022-12-03T05:10:13.923Z,1016.83
2022-12-03T05:11:13.908Z,1016.87
2022-12-03T05:12:13.910Z,1016.83
2022-12-03T05:13:13.907Z,1016.89
2022-12-03T05:14:13.881Z,1016.90
2022-12-03T05:15:13.867Z,1016.86
2022-12-03T05:16:13.918Z,1016.84
2022-12-03T05:17:13.949Z,1016.92
2022-12-03T05:18:13.849Z,1016.89
2022-12-03T05:19:13.821Z,1016.86
2022-12-03T05:20:13.816Z,1016.87
2022-12-03T05:21:13.801Z,1016.84
2022-12-03T05:22:13.795Z,1016.83
2022-12-03T05:23:13.792Z,1016.82
2022-12-03T05:24:13.771Z,1016.78
2022-12-03T05:25:13.765Z,1016.82
2022-12-03T05:26:13.751Z,1016.81
2022-12-03T05:27:15.809Z,1016.81
2022-12-03T05:28:13.751Z,1016.84
2022-12-03T05:29:13.712Z,1016.83
2022-12-03T05:30:13.716Z,1016.85
2022-12-03T05:31:13.784Z,1016.81
2022-12-03T05:32:13.684Z,1016.79
2022-12-03T05:33:13.684Z,1016.80
2022-12-03T05:34:13.664Z,1016.78
2022-12-03T05:35:13.649Z,1016.75
2022-12-03T05:36:13.644Z,1016.80
2022-12-03T05:37:13.627Z,1016.79
2022-12-03T05:38:13.638Z,1016.77
2022-12-03T05:39:13.605Z,1016.80
2022-12-03T05:40:13.611Z,1016.78
2022-12-03T05:41:13.585Z,1016.73
2022-12-03T05:42:13.579Z,1016.76
2022-12-03T05:43:13.564Z,1016.73
2022-12-03T05:44:18.847Z,1016.79
2022-12-03T05:45:13.551Z,1016.69
2022-12-03T05:46:13.603Z,1016.63
2022-12-03T05:47:13.522Z,1016.73
2022-12-03T05:48:13.514Z,1016.74
2022-12-03T05:49:13.515Z,1016.70
2022-12-03T05:50:13.491Z,1016.73
2022-12-03T05:51:13.476Z,1016.69
2022-12-03T05:52:13.476Z,1016.73
2022-12-03T05:53:13.454Z,1016.68
2022-12-03T05:54:13.463Z,1016.69
2022-12-03T05:55:13.436Z,1016.70
2022-12-03T05:56:13.427Z,1016.68
2022-12-03T05:57:13.411Z,1016.74
2022-12-03T05:58:13.408Z,1016.73
2022-12-03T05:59:13.401Z,1016.70
2022-12-03T06:00:13.384Z,1016.74
2022-12-03T06:01:13.372Z,1016.71
2022-12-03T06:02:13.476Z,1016.70
2022-12-03T06:03:13.516Z,1016.70
2022-12-03T06:04:13.353Z,1016.76
2022-12-03T06:05:13.331Z,1016.72
2022-12-03T06:06:13.320Z,1016.71
2022-12-03T06:07:14.298Z,1016.74
2022-12-03T06:08:13.342Z,1016.70
2022-12-03T06:09:13.292Z,1016.71
2022-12-03T06:10:13.276Z,1016.72
2022-12-03T06:11:13.261Z,1016.69
2022-12-03T06:12:13.254Z,1016.68
2022-12-03T06:13:13.240Z,1016.71
2022-12-03T06:14:13.242Z,1016.64
2022-12-03T06:15:13.218Z,1016.68
2022-12-03T06:16:13.249Z,1016.67
2022-12-03T06:17:13.206Z,1016.66
2022-12-03T06:18:13.203Z,1016.63
2022-12-03T06:19:13.187Z,1016.67
2022-12-03T06:20:13.169Z,1016.59
2022-12-03T06:21:13.154Z,1016.63
2022-12-03T06:22:13.147Z,1016.61
2022-12-03T06:23:13.132Z,1016.60
2022-12-03T06:24:13.137Z,1016.63
2022-12-03T06:25:13.110Z,1016.61
2022-12-03T06:26:13.105Z,1016.63
2022-12-03T06:27:13.089Z,1016.59
2022-12-03T06:28:13.086Z,1016.65
2022-12-03T06:29:13.076Z,1016.60
2022-12-03T06:30:13.063Z,1016.59
2022-12-03T06:31:13.115Z,1016.64
2022-12-03T06:32:13.039Z,1016.61
2022-12-03T06:33:13.025Z,1016.62
2022-12-03T06:34:13.027Z,1016.61
2022-12-03T06:35:13.002Z,1016.60
2022-12-03T06:36:13.003Z,1016.64
2022-12-03T06:37:12.991Z,1016.61
2022-12-03T06:38:12.981Z,1016.65
2022-12-03T06:39:12.971Z,1016.62
2022-12-03T06:40:12.951Z,1016.64
2022-12-03T06:41:12.937Z,1016.65
2022-12-03T06:42:12.934Z,1016.62
2022-12-03T06:43:12.916Z,1016.63
2022-12-03T06:44:12.921Z,1016.64
2022-12-03T06:45:12.896Z,1016.63
2022-12-03T06:46:12.948Z,1016.60
2022-12-03T06:47:12.872Z,1016.62
2022-12-03T06:48:12.867Z,1016.64
2022-12-03T06:49:12.864Z,1016.64
2022-12-03T06:50:12.863Z,1016.65
2022-12-03T06:51:12.836Z,1016.60
2022-12-03T06:52:12.825Z,1016.65
2022-12-03T06:53:12.811Z,1016.65
2022-12-03T06:54:12.813Z,1016.59
2022-12-03T06:55:12.787Z,1016.60
2022-12-03T06:56:12.783Z,1016.55
2022-12-03T06:57:12.767Z,1016.66
2022-12-03T06:58:12.762Z,1016.63
2022-12-03T06:59:12.758Z,1016.62
2022-12-03T07:00:12.733Z,1016.63
2022-12-03T07:01:12.758Z,1016.55
2022-12-03T07:02:12.849Z,1016.61
2022-12-03T07:03:12.754Z,1016.57
2022-12-03T07:04:12.700Z,1016.56
2022-12-03T07:05:12.686Z,1016.58
2022-12-03T07:06:12.671Z,1016.55
2022-12-03T07:07:12.664Z,1016.57
2022-12-03T07:08:12.703Z,1016.55
2022-12-03T07:09:12.652Z,1016.58
2022-12-03T07:10:12.625Z,1016.61
2022-12-03T07:11:12.619Z,1016.56
2022-12-03T07:12:12.610Z,1016.56
2022-12-03T07:13:12.604Z,1016.58
2022-12-03T07:14:12.594Z,1016.57
2022-12-03T07:15:12.576Z,1016.57
2022-12-03T07:16:12.589Z,1016.59
2022-12-03T07:17:12.555Z,1016.61
2022-12-03T07:18:12.540Z,1016.57
2022-12-03T07:19:12.562Z,1016.57
2022-12-03T07:20:12.521Z,1016.49
2022-12-03T07:21:12.512Z,1016.53
2022-12-03T07:22:12.494Z,1016.52
2022-12-03T07:23:12.489Z,1016.53
2022-12-03T07:24:12.478Z,1016.58
2022-12-03T07:25:12.478Z,1016.55
2022-12-03T07:26:12.454Z,1016.57
2022-12-03T07:27:12.445Z,1016.51
2022-12-03T07:28:12.434Z,1016.46
2022-12-03T07:29:12.425Z,1016.47
2022-12-03T07:30:12.420Z,1016.52
2022-12-03T07:31:12.437Z,1016.54
2022-12-03T07:32:12.388Z,1016.53
2022-12-03T07:33:12.381Z,1016.50
2022-12-03T07:34:12.369Z,1016.55
2022-12-03T07:35:12.370Z,1016.55
2022-12-03T07:36:12.344Z,1016.49
2022-12-03T07:37:12.337Z,1016.50
2022-12-03T07:38:12.322Z,1016.48
2022-12-03T07:39:12.318Z,1016.49
2022-12-03T07:40:12.314Z,1016.53
2022-12-03T07:41:12.298Z,1016.48
2022-12-03T07:42:12.282Z,1016.52
2022-12-03T07:43:12.274Z,1016.52
2022-12-03T07:44:14.586Z,1016.56
2022-12-03T07:45:12.264Z,1016.52
2022-12-03T07:46:12.285Z,1016.54
2022-12-03T07:47:12.288Z,1016.52
2022-12-03T07:48:12.214Z,1016.50
2022-12-03T07:49:12.211Z,1016.50
2022-12-03T07:50:12.201Z,1016.54
2022-12-03T07:51:15.157Z,1016.49
2022-12-03T07:52:12.178Z,1016.49
2022-12-03T07:53:12.164Z,1016.47
2022-12-03T07:54:12.151Z,1016.52
2022-12-03T07:55:12.156Z,1016.46
2022-12-03T07:56:12.132Z,1016.50
2022-12-03T07:57:12.123Z,1016.48
2022-12-03T07:58:12.112Z,1016.49
2022-12-03T07:59:12.101Z,1016.51
2022-12-03T08:00:12.095Z,1016.53
2022-12-03T08:01:12.188Z,1016.51
2022-12-03T08:02:13.896Z,1016.55
2022-12-03T08:03:12.063Z,1016.53
2022-12-03T08:04:12.070Z,1016.53
2022-12-03T08:05:12.044Z,1016.52
2022-12-03T08:06:12.021Z,1016.57
2022-12-03T08:07:12.014Z,1016.51
2022-12-03T08:08:12.080Z,1016.52
2022-12-03T08:09:15.734Z,1016.53
2022-12-03T08:10:11.988Z,1016.47
2022-12-03T08:11:11.971Z,1016.48
2022-12-03T08:12:11.955Z,1016.52
2022-12-03T08:13:11.950Z,1016.49
2022-12-03T08:14:11.965Z,1016.49
2022-12-03T08:15:11.936Z,1016.49
2022-12-03T08:16:11.965Z,1016.52
2022-12-03T08:17:11.908Z,1016.51
2022-12-03T08:18:11.899Z,1016.51
2022-12-03T08:19:11.882Z,1016.48
2022-12-03T08:20:11.880Z,1016.49
2022-12-03T08:21:11.863Z,1016.54
2022-12-03T08:22:11.849Z,1016.52
2022-12-03T08:23:11.839Z,1016.52
2022-12-03T08:24:11.828Z,1016.51
2022-12-03T08:25:11.827Z,1016.53
2022-12-03T08:26:11.803Z,1016.50
2022-12-03T08:27:11.797Z,1016.53
2022-12-03T08:28:11.784Z,1016.53
2022-12-03T08:29:11.778Z,1016.56
2022-12-03T08:30:11.779Z,1016.53
2022-12-03T08:31:11.816Z,1016.55
2022-12-03T08:32:11.816Z,1016.51
2022-12-03T08:33:11.733Z,1016.53
2022-12-03T08:34:11.717Z,1016.54
2022-12-03T08:35:11.711Z,1016.51
2022-12-03T08:36:11.709Z,1016.51
2022-12-03T08:37:11.694Z,1016.49
2022-12-03T08:38:11.672Z,1016.43
2022-12-03T08:39:11.668Z,1016.47
2022-12-03T08:40:11.652Z,1016.53
2022-12-03T08:41:11.657Z,1016.49
2022-12-03T08:42:13.859Z,1016.47
2022-12-03T08:43:11.622Z,1016.46
2022-12-03T08:44:11.610Z,1016.45
2022-12-03T08:45:11.602Z,1016.46
2022-12-03T08:46:11.684Z,1016.52
2022-12-03T08:47:11.582Z,1016.49
2022-12-03T08:48:11.569Z,1016.48
2022-12-03T08:49:11.556Z,1016.55
2022-12-03T08:50:11.548Z,1016.47
2022-12-03T08:51:11.550Z,1016.49
2022-12-03T08:52:11.532Z,1016.51
2022-12-03T08:53:11.516Z,1016.45
2022-12-03T08:54:11.505Z,1016.50
2022-12-03T08:55:11.491Z,1016.53
2022-12-03T08:56:11.492Z,1016.52
2022-12-03T08:57:11.468Z,1016.50
2022-12-03T08:58:11.461Z,1016.54
2022-12-03T08:59:11.447Z,1016.54
2022-12-03T09:00:11.444Z,1016.52
2022-12-03T09:01:11.597Z,1016.49
2022-12-03T09:02:11.419Z,1016.46
2022-12-03T09:03:11.408Z,1016.38
2022-12-03T09:04:11.466Z,1016.48
2022-12-03T09:05:11.381Z,1016.42
2022-12-03T09:06:11.384Z,1016.39
2022-12-03T09:07:11.358Z,1016.38
2022-12-03T09:08:11.396Z,1016.43
2022-12-03T09:09:11.338Z,1016.40
2022-12-03T09:10:11.336Z,1016.40
2022-12-03T09:11:11.327Z,1016.43
2022-12-03T09:12:11.318Z,1016.46
2022-12-03T09:13:11.297Z,1016.42
2022-12-03T09:14:16.691Z,1016.37
2022-12-03T09:15:11.281Z,1016.50
2022-12-03T09:16:11.340Z,1016.42
2022-12-03T09:17:11.288Z,1016.42
2022-12-03T09:18:11.244Z,1016.41
2022-12-03T09:19:11.246Z,1016.43
2022-12-03T09:20:11.226Z,1016.41
2022-12-03T09:21:11.220Z,1016.37
2022-12-03T09:22:11.203Z,1016.46
2022-12-03T09:36:09.166Z,1016.45
2022-12-03T09:37:10.164Z,1016.47
2022-12-03T09:38:10.140Z,1016.48
2022-12-03T09:39:10.132Z,1016.44
2022-12-03T09:40:10.126Z,1016.45
2022-12-03T09:41:10.111Z,1016.42
2022-12-03T09:42:10.113Z,1016.42
2022-12-03T09:43:10.091Z,1016.41
2022-12-03T09:44:15.781Z,1016.41
2022-12-03T09:45:10.073Z,1016.45
2022-12-03T09:46:10.141Z,1016.48
2022-12-03T09:47:10.058Z,1016.42
2022-12-03T09:48:10.031Z,1016.40
2022-12-03T09:49:15.575Z,1016.45
2022-12-03T09:50:10.016Z,1016.45
2022-12-03T09:51:10.002Z,1016.39
2022-12-03T09:52:09.999Z,1016.44
2022-12-03T09:53:09.984Z,1016.39
2022-12-03T09:54:09.975Z,1016.36
2022-12-03T09:55:09.963Z,1016.42
2022-12-03T09:56:09.945Z,1016.41
2022-12-03T09:57:09.951Z,1016.38
2022-12-03T09:58:09.921Z,1016.39
2022-12-03T09:59:09.922Z,1016.37
2022-12-03T10:00:09.903Z,1016.38
2022-12-03T10:01:09.932Z,1016.30
2022-12-03T10:02:09.914Z,1016.32
2022-12-03T10:03:09.875Z,1016.31
2022-12-03T10:04:09.891Z,1016.28
2022-12-03T10:05:09.951Z,1016.24
2022-12-03T10:06:09.836Z,1016.21
2022-12-03T10:07:09.934Z,1016.22
2022-12-03T10:08:09.855Z,1016.20
2022-12-03T10:09:09.808Z,1016.14
2022-12-03T10:10:09.791Z,1016.10
2022-12-03T10:11:09.785Z,1016.10
2022-12-03T10:12:09.780Z,1016.13
2022-12-03T10:13:09.768Z,1016.12
2022-12-03T10:14:09.749Z,1016.12
2022-12-03T10:15:09.743Z,1016.13
2022-12-03T10:16:09.727Z,1016.13
2022-12-03T10:17:09.786Z,1016.11
2022-12-03T10:18:09.705Z,1016.12
2022-12-03T10:19:09.718Z,1016.08
2022-12-03T10:20:09.687Z,1016.09
2022-12-03T10:21:09.678Z,1016.10
2022-12-03T10:22:09.674Z,1016.05
2022-12-03T10:23:09.658Z,1016.06
2022-12-03T10:24:09.641Z,1016.10
2022-12-03T10:25:09.633Z,1016.09
2022-12-03T10:26:09.623Z,1016.11
2022-12-03T10:27:09.623Z,1016.09
2022-12-03T10:28:09.597Z,1016.07
2022-12-03T10:29:09.590Z,1016.05
2022-12-03T10:30:09.573Z,1016.05
2022-12-03T10:31:09.638Z,1016.05
2022-12-03T10:32:09.565Z,1016.09
2022-12-03T10:33:12.125Z,1016.12
2022-12-03T10:34:09.533Z,1016.11
2022-12-03T10:35:09.546Z,1016.11
2022-12-03T10:36:09.509Z,1016.07
2022-12-03T10:37:09.513Z,1016.02
2022-12-03T10:38:09.487Z,1016.08
2022-12-03T10:39:09.487Z,1016.05
2022-12-03T10:40:09.478Z,1016.03
2022-12-03T10:41:09.458Z,1016.05
2022-12-03T10:42:09.454Z,1016.03
2022-12-03T10:43:09.439Z,1015.98
2022-12-03T10:44:09.426Z,1015.97
2022-12-03T10:45:09.421Z,1015.96
2022-12-03T10:46:09.558Z,1015.92
2022-12-03T10:47:09.544Z,1015.91
2022-12-03T10:48:09.380Z,1015.89
2022-12-03T10:49:09.371Z,1015.89
2022-12-03T10:50:09.356Z,1015.87
2022-12-03T10:51:09.351Z,1015.83
2022-12-03T10:52:09.334Z,1015.82
2022-12-03T10:53:09.339Z,1015.79
2022-12-03T10:54:09.313Z,1015.78
2022-12-03T10:55:09.303Z,1015.77
2022-12-03T10:56:09.295Z,1015.79
2022-12-03T10:57:09.292Z,1015.77
2022-12-03T10:58:09.280Z,1015.78
2022-12-03T10:59:09.257Z,1015.77
2022-12-03T11:00:09.252Z,1015.74
2022-12-03T11:01:09.262Z,1015.79
2022-12-03T11:02:09.322Z,1015.74
2022-12-03T11:03:09.294Z,1015.77
2022-12-03T11:04:09.266Z,1015.77
2022-12-03T11:05:09.191Z,1015.68
2022-12-03T11:06:09.188Z,1015.70
2022-12-03T11:07:09.170Z,1015.67
2022-12-03T11:08:09.268Z,1015.68
2022-12-03T11:09:09.389Z,1015.68
2022-12-03T11:10:09.142Z,1015.67
2022-12-03T11:11:09.126Z,1015.68
2022-12-03T11:12:09.120Z,1015.65
2022-12-03T11:13:09.116Z,1015.64
2022-12-03T11:14:09.096Z,1015.66
2022-12-03T11:15:09.083Z,1015.60
2022-12-03T11:16:09.157Z,1015.60
2022-12-03T11:17:09.061Z,1015.51
2022-12-03T11:18:09.063Z,1015.55
2022-12-03T11:19:09.039Z,1015.47
2022-12-03T11:20:09.032Z,1015.51
2022-12-03T11:21:09.024Z,1015.48
2022-12-03T11:22:09.011Z,1015.51
2022-12-03T11:23:09.005Z,1015.50
2022-12-03T11:24:08.995Z,1015.58
2022-12-03T11:25:08.973Z,1015.45
2022-12-03T11:26:10.368Z,1015.49
2022-12-03T11:27:08.954Z,1015.47
2022-12-03T11:28:08.955Z,1015.49
2022-12-03T11:29:09.123Z,1015.46
2022-12-03T11:30:08.924Z,1015.42
2022-12-03T11:31:08.948Z,1015.41
2022-12-03T11:32:09.009Z,1015.42
2022-12-03T11:33:08.898Z,1015.45
2022-12-03T11:34:08.879Z,1015.42
2022-12-03T11:35:08.866Z,1015.39
2022-12-03T11:36:09.075Z,1015.42
2022-12-03T11:37:08.844Z,1015.39
2022-12-03T11:38:08.849Z,1015.35
2022-12-03T11:39:08.821Z,1015.36
2022-12-03T11:40:08.814Z,1015.33
2022-12-03T11:41:08.799Z,1015.32
2022-12-03T11:42:08.794Z,1015.30
2022-12-03T11:43:08.794Z,1015.28
2022-12-03T11:44:08.770Z,1015.29
2022-12-03T11:45:08.755Z,1015.35
2022-12-03T11:46:08.828Z,1015.38
2022-12-03T11:47:08.785Z,1015.33
2022-12-03T11:48:08.731Z,1015.34
2022-12-03T11:49:08.721Z,1015.32
2022-12-03T11:50:08.704Z,1015.30
2022-12-03T11:51:08.689Z,1015.31
2022-12-03T11:52:08.681Z,1015.32
2022-12-03T11:53:08.667Z,1015.29
2022-12-03T11:54:08.672Z,1015.29
2022-12-03T11:55:08.646Z,1015.25
2022-12-03T11:56:08.677Z,1015.26
2022-12-03T11:57:08.624Z,1015.25
2022-12-03T11:58:08.623Z,1015.33
2022-12-03T11:59:08.614Z,1015.27
2022-12-03T12:00:08.596Z,1015.23
2022-12-03T12:01:08.620Z,1015.22
2022-12-03T12:02:08.573Z,1015.24
2022-12-03T12:03:08.659Z,1015.21
2022-12-03T12:04:08.625Z,1015.21
2022-12-03T12:05:08.536Z,1015.21
2022-12-03T12:06:08.528Z,1015.22
2022-12-03T12:07:08.511Z,1015.21
2022-12-03T12:08:08.579Z,1015.15
2022-12-03T12:09:08.502Z,1015.21
2022-12-03T12:10:08.484Z,1015.13
2022-12-03T12:11:08.471Z,1015.10
2022-12-03T12:12:08.464Z,1015.10
2022-12-03T12:13:08.448Z,1015.08
2022-12-03T12:14:08.457Z,1015.10
2022-12-03T12:15:08.427Z,1015.07
2022-12-03T12:16:08.495Z,1015.08
2022-12-03T12:17:08.406Z,1015.04
2022-12-03T12:18:08.399Z,1015.03